createdAt,value
2023-03-04T00:01:26.999Z,83.73
2023-03-04T00:06:30.055Z,83.63
2023-03-04T00:11:33.069Z,84.63
2023-03-04T00:16:35.674Z,84.28
2023-03-04T00:21:38.454Z,84.48
2023-03-04T00:26:41.605Z,84.66
2023-03-04T00:31:44.230Z,84.82
2023-03-04T00:36:47.016Z,84.43
2023-03-04T00:41:49.596Z,84.49
2023-03-04T00:46:52.164Z,85.48
2023-03-04T00:51:54.848Z,86.38
2023-03-04T00:56:57.470Z,85.92
2023-03-04T01:02:00.766Z,86.68
2023-03-04T01:07:03.815Z,86.71
2023-03-04T01:12:06.837Z,87.52
2023-03-04T01:17:09.651Z,88.00
2023-03-04T01:22:13.808Z,88.21
2023-03-04T01:27:17.064Z,88.76
2023-03-04T01:32:19.734Z,88.56
2023-03-04T01:37:24.772Z,89.06
2023-03-04T01:42:36.117Z,87.63
2023-03-04T01:47:38.778Z,86.52
2023-03-04T01:52:43.147Z,87.43
2023-03-04T01:57:47.468Z,87.71
2023-03-04T02:02:53.312Z,87.22
2023-03-04T02:07:57.394Z,86.97
2023-03-04T02:13:01.303Z,87.30
2023-03-04T02:18:14.832Z,87.57
2023-03-04T02:23:28.843Z,87.91
2023-03-04T02:28:31.457Z,88.20
2023-03-04T02:33:34.113Z,89.58
2023-03-04T02:38:36.792Z,90.06
2023-03-04T02:43:40.477Z,88.85
2023-03-04T02:48:43.390Z,89.83
2023-03-04T02:53:46.293Z,89.46
2023-03-04T02:58:49.090Z,88.45
2023-03-04T03:03:51.715Z,88.55
2023-03-04T03:08:54.433Z,90.12
2023-03-04T03:13:57.424Z,92.84
2023-03-04T03:19:00.489Z,94.85
2023-03-04T03:24:03.300Z,94.74
2023-03-04T03:29:05.911Z,94.63
2023-03-04T03:34:08.656Z,95.11
2023-03-04T03:39:11.480Z,93.57
2023-03-04T03:44:14.063Z,92.56
2023-03-04T03:49:17.348Z,91.68
2023-03-04T03:54:19.970Z,91.06
2023-03-04T03:59:24.256Z,90.67
2023-03-04T04:04:26.909Z,91.02
2023-03-04T04:09:29.669Z,91.60
2023-03-04T04:14:33.002Z,91.46
2023-03-04T04:19:35.808Z,91.15
2023-03-04T04:24:38.410Z,90.87
2023-03-04T04:29:41.283Z,90.79
2023-03-04T04:34:44.010Z,90.76
2023-03-04T04:39:46.782Z,91.10
2023-03-04T04:44:50.200Z,90.50
2023-03-04T04:49:52.816Z,89.59
2023-03-04T04:54:55.429Z,89.77
2023-03-04T04:59:58.088Z,88.95
2023-03-04T05:05:00.651Z,89.26
2023-03-04T05:10:04.829Z,88.36
2023-03-04T05:15:08.020Z,87.83
2023-03-04T05:20:11.244Z,87.22
2023-03-04T05:25:13.887Z,87.02
2023-03-04T05:30:16.695Z,87.67
2023-03-04T05:35:19.539Z,87.79
2023-03-04T05:40:22.132Z,87.43
2023-03-04T05:45:25.792Z,86.37
2023-03-04T05:50:28.480Z,87.30
2023-03-04T05:55:31.598Z,86.63
2023-03-04T06:00:34.179Z,86.19
2023-03-04T06:05:36.823Z,85.63
2023-03-04T06:10:41.269Z,84.38
2023-03-04T06:15:43.888Z,84.21
2023-03-04T06:20:46.556Z,83.63
2023-03-04T06:25:53.345Z,84.02
2023-03-04T06:30:56.797Z,82.88
2023-03-04T06:35:59.680Z,82.06
2023-03-04T06:41:13.507Z,80.54
2023-03-04T06:46:16.162Z,79.80
2023-03-04T06:51:19.882Z,78.12
2023-03-04T06:56:22.588Z,77.04
2023-03-04T07:01:27.854Z,76.88
2023-03-04T07:06:30.654Z,76.74
2023-03-04T07:11:33.447Z,75.16
2023-03-04T07:16:36.153Z,73.19
2023-03-04T07:21:39.024Z,72.05
2023-03-04T07:26:41.627Z,71.70
2023-03-04T07:31:44.278Z,72.16
2023-03-04T07:36:47.032Z,72.70
2023-03-04T07:41:49.699Z,72.12
2023-03-04T07:46:52.326Z,71.95
2023-03-04T07:51:55.121Z,71.52
2023-03-04T07:56:57.816Z,71.15
2023-03-04T08:02:00.493Z,70.83
2023-03-04T08:07:03.050Z,70.53
2023-03-04T08:12:06.284Z,70.40
2023-03-04T08:17:10.107Z,70.33
2023-03-04T08:22:13.116Z,70.05
2023-03-04T08:27:16.100Z,70.70
2023-03-04T08:32:19.045Z,70.44
2023-03-04T08:37:21.736Z,69.69
2023-03-04T08:42:24.665Z,69.19
2023-03-04T08:47:27.838Z,68.50
2023-03-04T08:52:31.057Z,66.99
2023-03-04T08:57:33.897Z,64.66
2023-03-04T09:02:36.837Z,64.44
2023-03-04T09:07:39.508Z,65.63
2023-03-04T09:12:42.229Z,66.49
2023-03-04T09:17:44.942Z,65.74
2023-03-04T09:22:47.610Z,65.13
2023-03-04T09:27:50.249Z,63.99
2023-03-04T09:32:52.882Z,63.52
2023-03-04T09:37:56.282Z,63.05
2023-03-04T09:43:05.881Z,61.63
2023-03-04T09:48:13.820Z,62.05
2023-03-04T09:53:29.217Z,60.75
2023-03-04T09:58:48.726Z,60.91
2023-03-04T10:04:48.547Z,61.42
2023-03-04T10:09:59.841Z,61.44
2023-03-04T10:21:04.248Z,62.97
2023-03-04T10:26:17.694Z,61.31
2023-03-04T10:37:01.906Z,63.50
2023-03-04T10:42:25.154Z,63.32
2023-03-04T10:47:31.496Z,64.05
2023-03-04T10:52:50.161Z,64.19
2023-03-04T10:57:57.969Z,64.30
2023-03-04T11:03:22.705Z,65.19
2023-03-04T11:08:25.392Z,65.89
2023-03-04T11:13:28.266Z,66.28
2023-03-04T11:18:52.503Z,65.94
2023-03-04T11:24:00.364Z,67.21
2023-03-04T11:29:18.679Z,68.07
2023-03-04T11:34:38.838Z,69.45
2023-03-04T11:39:47.947Z,70.33
2023-03-04T11:44:51.857Z,71.13
2023-03-04T11:50:20.456Z,72.50
2023-03-04T11:55:47.959Z,73.25
2023-03-04T12:01:02.134Z,72.67
2023-03-04T12:06:39.132Z,73.32
2023-03-04T12:11:54.064Z,73.85
2023-03-04T12:17:32.535Z,74.99
2023-03-04T12:22:40.977Z,75.88
2023-03-04T12:28:16.190Z,75.58
2023-03-04T12:33:21.787Z,76.14
2023-03-04T12:38:36.252Z,77.19
2023-03-04T12:44:03.268Z,77.37
2023-03-04T12:49:05.893Z,77.03
2023-03-04T12:54:32.795Z,78.01
2023-03-04T12:59:43.744Z,78.24
2023-03-04T13:05:17.194Z,78.31
2023-03-04T13:10:21.038Z,78.48
2023-03-04T13:15:38.244Z,77.83
2023-03-04T13:20:42.349Z,78.82
2023-03-04T13:25:48.326Z,79.23
2023-03-04T13:30:57.282Z,79.51
2023-03-04T13:36:06.411Z,80.18
2023-03-04T13:41:21.093Z,80.53
2023-03-04T13:46:24.231Z,81.81
2023-03-04T13:51:37.681Z,81.48
2023-03-04T13:56:41.780Z,81.54
2023-03-04T14:01:44.386Z,82.03
2023-03-04T14:06:50.108Z,82.18
2023-03-04T14:11:57.525Z,82.83
2023-03-04T14:17:05.943Z,83.03
2023-03-04T14:22:33.589Z,83.35
2023-03-04T14:27:36.704Z,83.30
2023-03-04T14:32:43.190Z,84.04
2023-03-04T14:38:06.764Z,84.11
2023-03-04T14:43:16.117Z,84.29
2023-03-04T14:48:32.280Z,84.41
2023-03-04T14:53:36.012Z,85.27
2023-03-04T14:58:51.903Z,85.27
2023-03-04T15:04:02.336Z,85.35
2023-03-04T15:09:07.731Z,85.63
2023-03-04T15:14:42.463Z,86.48
2023-03-04T15:19:45.097Z,86.17
2023-03-04T15:24:49.745Z,87.10
2023-03-04T15:29:59.202Z,86.62
2023-03-04T15:35:01.947Z,87.18
2023-03-04T15:40:12.962Z,87.27
2023-03-04T15:45:22.095Z,88.15
2023-03-04T15:50:29.398Z,88.53
2023-03-04T15:55:32.382Z,88.43
2023-03-04T16:00:35.109Z,88.26
2023-03-04T16:05:38.261Z,88.07
2023-03-04T16:10:41.740Z,88.64
2023-03-04T16:15:44.613Z,88.45
2023-03-04T16:20:49.693Z,88.85
2023-03-04T16:25:57.007Z,89.38
2023-03-04T16:30:59.634Z,89.44
2023-03-04T16:36:04.190Z,89.38
2023-03-04T16:41:13.259Z,89.51
2023-03-04T16:46:15.865Z,89.87
2023-03-04T16:51:21.121Z,90.21
2023-03-04T16:56:24.093Z,90.96
2023-03-04T17:01:28.945Z,90.57
2023-03-04T17:06:34.382Z,92.24
2023-03-04T17:11:37.309Z,92.77
2023-03-04T17:16:40.041Z,95.94
2023-03-04T17:21:42.651Z,100.00
2023-03-04T17:26:45.283Z,100.00
2023-03-04T17:31:48.755Z,100.00
2023-03-04T17:36:51.680Z,100.00
2023-03-04T17:41:54.368Z,100.00
2023-03-04T17:46:57.733Z,100.00
2023-03-04T17:52:02.552Z,100.00
2023-03-04T17:57:05.597Z,100.00
2023-03-04T18:02:14.222Z,100.00
2023-03-04T18:07:16.917Z,100.00
2023-03-04T18:12:19.506Z,100.00
2023-03-04T18:17:22.234Z,100.00
2023-03-04T18:22:25.004Z,100.00
2023-03-04T18:27:28.125Z,100.00
2023-03-04T18:32:45.581Z,100.00
2023-03-04T18:37:53.489Z,100.00
2023-03-04T18:42:57.198Z,100.00
2023-03-04T18:48:00.353Z,100.00
2023-03-04T18:53:03.132Z,100.00
2023-03-04T18:58:05.868Z,100.00
2023-03-04T19:03:12.568Z,100.00
2023-03-04T19:08:15.289Z,100.00
2023-03-04T19:13:18.563Z,98.73
2023-03-04T19:18:21.509Z,98.09
2023-03-04T19:23:24.883Z,97.64
2023-03-04T19:28:27.639Z,98.59
2023-03-04T19:33:30.786Z,97.59
2023-03-04T19:38:34.959Z,97.36
2023-03-04T19:43:39.346Z,97.46
2023-03-04T19:48:42.266Z,96.53
2023-03-04T19:53:45.582Z,97.29
2023-03-04T19:58:48.562Z,96.69
2023-03-04T20:03:51.237Z,96.60
2023-03-04T20:08:57.413Z,96.42
2023-03-04T20:14:04.690Z,96.34
2023-03-04T20:19:07.443Z,96.23
2023-03-04T20:24:10.157Z,96.05
2023-03-04T20:29:12.882Z,96.11
2023-03-04T20:34:15.867Z,95.47
2023-03-04T20:39:28.694Z,96.63
2023-03-04T20:44:32.065Z,95.32
2023-03-04T20:49:34.803Z,95.03
2023-03-04T20:54:39.062Z,94.66
2023-03-04T20:59:42.067Z,94.46
2023-03-04T21:04:44.949Z,94.08
2023-03-04T21:09:47.842Z,93.92
2023-03-04T21:14:50.779Z,94.24
2023-03-04T21:19:53.478Z,93.99
2023-03-04T21:24:56.270Z,93.16
2023-03-04T21:29:59.045Z,92.88
2023-03-04T21:35:01.959Z,93.22
2023-03-04T21:40:05.924Z,93.15
2023-03-04T21:45:10.226Z,93.71
2023-03-04T21:50:12.927Z,93.03
2023-03-04T21:55:15.789Z,93.86
2023-03-04T22:00:18.939Z,93.59
2023-03-04T22:05:21.540Z,93.38
2023-03-04T22:10:24.275Z,93.10
2023-03-04T22:15:26.872Z,92.87
2023-03-04T22:20:29.631Z,93.59
2023-03-04T22:25:36.418Z,93.96
2023-03-04T22:30:39.421Z,93.94
2023-03-04T22:35:42.788Z,93.07
2023-03-04T22:40:46.288Z,94.11
2023-03-04T22:45:49.134Z,93.75
2023-03-04T22:50:51.801Z,93.50
2023-03-04T22:55:58.485Z,93.48
2023-03-04T23:01:02.766Z,93.90
2023-03-04T23:06:08.876Z,93.52
2023-03-04T23:11:15.873Z,94.36
2023-03-04T23:16:20.610Z,94.30
2023-03-04T23:21:25.612Z,93.56
2023-03-04T23:26:34.187Z,93.70
2023-03-04T23:31:37.228Z,93.53
2023-03-04T23:36:40.043Z,93.68
2023-03-04T23:41:42.938Z,93.08
2023-03-04T23:46:45.550Z,93.29
2023-03-04T23:51:48.146Z,93.53
2023-03-04T23:56:50.874Z,93.34
